sensor_id;sensor_type;location;lat;lon;timestamp;pressure;altitude;pressure_sealevel;temperature;humidity
41686;BME280;27370;42.764;23.432;2022-11-15T00:01:47;96184.38;;;-0.69;100.00
41686;BME280;27370;42.764;23.432;2022-11-15T00:04:31;96183.69;;;-0.57;100.00
41686;BME280;27370;42.764;23.432;2022-11-15T00:07:15;96187.09;;;-0.48;100.00
41686;BME280;27370;42.764;23.432;2022-11-15T00:09:59;96180.19;;;-0.41;100.00
41686;BME280;27370;42.764;23.432;2022-11-15T00:12:43;96187.38;;;-0.12;100.00
41686;BME280;27370;42.764;23.432;2022-11-15T00:15:27;96187.59;;;-0.25;100.00
41686;BME280;27370;42.764;23.432;2022-11-15T00:18:13;96193.97;;;-0.47;100.00
41686;BME280;27370;42.764;23.432;2022-11-15T00:21:04;96190.91;;;-0.28;100.00
41686;BME280;27370;42.764;23.432;2022-11-15T00:23:49;96187.00;;;-0.31;100.00
41686;BME280;27370;42.764;23.432;2022-11-15T00:26:33;96180.06;;;-0.23;100.00
41686;BME280;27370;42.764;23.432;2022-11-15T00:29:17;96198.22;;;0.04;100.00
41686;BME280;27370;42.764;23.432;2022-11-15T00:32:01;96183.78;;;-0.16;100.00
41686;BME280;27370;42.764;23.432;2022-11-15T00:34:45;96183.31;;;-0.47;100.00
41686;BME280;27370;42.764;23.432;2022-11-15T00:37:28;96182.09;;;-0.50;100.00
41686;BME280;27370;42.764;23.432;2022-11-15T00:40:13;96178.00;;;-0.47;100.00
41686;BME280;27370;42.764;23.432;2022-11-15T00:42:57;96173.28;;;-0.71;100.00
41686;BME280;27370;42.764;23.432;2022-11-15T00:45:41;96175.41;;;-0.06;100.00
41686;BME280;27370;42.764;23.432;2022-11-15T00:48:25;96169.94;;;-0.59;100.00
41686;BME280;27370;42.764;23.432;2022-11-15T00:51:09;96169.75;;;-0.25;100.00
41686;BME280;27370;42.764;23.432;2022-11-15T00:53:53;96166.41;;;-0.13;100.00
41686;BME280;27370;42.764;23.432;2022-11-15T00:56:37;96164.34;;;-0.67;100.00
41686;BME280;27370;42.764;23.432;2022-11-15T00:59:21;96165.97;;;-0.83;100.00
41686;BME280;27370;42.764;23.432;2022-11-15T01:02:05;96165.84;;;-0.95;100.00
41686;BME280;27370;42.764;23.432;2022-11-15T01:04:49;96164.50;;;-0.72;100.00
41686;BME280;27370;42.764;23.432;2022-11-15T01:07:33;96165.00;;;-0.78;100.00
41686;BME280;27370;42.764;23.432;2022-11-15T01:10:17;96161.94;;;-0.89;100.00
41686;BME280;27370;42.764;23.432;2022-11-15T01:13:01;96151.31;;;-0.89;100.00
41686;BME280;27370;42.764;23.432;2022-11-15T01:15:45;96148.34;;;-0.96;100.00
41686;BME280;27370;42.764;23.432;2022-11-15T01:18:29;96145.56;;;-0.62;100.00
41686;BME280;27370;42.764;23.432;2022-11-15T01:21:15;96144.25;;;-0.55;100.00
41686;BME280;27370;42.764;23.432;2022-11-15T01:23:59;96139.81;;;-0.43;100.00
41686;BME280;27370;42.764;23.432;2022-11-15T01:26:43;96138.72;;;-0.42;100.00
41686;BME280;27370;42.764;23.432;2022-11-15T01:29:27;96141.09;;;-0.49;100.00
41686;BME280;27370;42.764;23.432;2022-11-15T01:32:11;96141.53;;;-0.47;100.00
41686;BME280;27370;42.764;23.432;2022-11-15T01:34:55;96154.03;;;-0.39;100.00
41686;BME280;27370;42.764;23.432;2022-11-15T01:37:39;96156.03;;;-0.36;100.00
41686;BME280;27370;42.764;23.432;2022-11-15T01:40:23;96148.19;;;-0.32;100.00
41686;BME280;27370;42.764;23.432;2022-11-15T01:43:28;96152.75;;;-0.33;100.00
41686;BME280;27370;42.764;23.432;2022-11-15T01:46:32;96146.19;;;-0.35;100.00
41686;BME280;27370;42.764;23.432;2022-11-15T01:49:20;96149.94;;;-0.36;100.00
41686;BME280;27370;42.764;23.432;2022-11-15T01:52:09;96145.28;;;-0.39;100.00
41686;BME280;27370;42.764;23.432;2022-11-15T01:55:11;96150.31;;;0.04;100.00
41686;BME280;27370;42.764;23.432;2022-11-15T01:58:01;96158.63;;;0.03;100.00
41686;BME280;27370;42.764;23.432;2022-11-15T02:00:46;96161.19;;;-0.31;100.00
41686;BME280;27370;42.764;23.432;2022-11-15T02:03:41;96148.03;;;-0.56;100.00
41686;BME280;27370;42.764;23.432;2022-11-15T02:06:26;96154.63;;;-0.63;100.00
41686;BME280;27370;42.764;23.432;2022-11-15T02:09:10;96163.13;;;-0.78;100.00
41686;BME280;27370;42.764;23.432;2022-11-15T02:11:55;96156.34;;;-1.05;100.00
41686;BME280;27370;42.764;23.432;2022-11-15T02:14:41;96147.22;;;-0.86;100.00
41686;BME280;27370;42.764;23.432;2022-11-15T02:20:55;96151.81;;;-1.04;100.00
41686;BME280;27370;42.764;23.432;2022-11-15T02:24:16;96145.22;;;-0.89;100.00
41686;BME280;27370;42.764;23.432;2022-11-15T02:30:04;96141.50;;;-0.38;100.00
41686;BME280;27370;42.764;23.432;2022-11-15T02:35:58;96140.75;;;-0.47;100.00
41686;BME280;27370;42.764;23.432;2022-11-15T02:41:46;96139.38;;;-0.45;100.00
41686;BME280;27370;42.764;23.432;2022-11-15T02:44:41;96130.81;;;-0.29;100.00
41686;BME280;27370;42.764;23.432;2022-11-15T02:47:29;96135.38;;;-0.09;100.00
41686;BME280;27370;42.764;23.432;2022-11-15T02:50:19;96134.72;;;-0.06;100.00
41686;BME280;27370;42.764;23.432;2022-11-15T02:53:04;96133.94;;;-0.07;100.00
41686;BME280;27370;42.764;23.432;2022-11-15T02:55:49;96136.03;;;0.09;100.00
41686;BME280;27370;42.764;23.432;2022-11-15T03:02:02;96150.56;;;0.11;100.00
41686;BME280;27370;42.764;23.432;2022-11-15T03:13:57;96138.56;;;0.26;100.00
41686;BME280;27370;42.764;23.432;2022-11-15T03:19:47;96143.25;;;0.41;100.00
41686;BME280;27370;42.764;23.432;2022-11-15T03:22:35;96141.38;;;0.21;100.00
41686;BME280;27370;42.764;23.432;2022-11-15T03:25:23;96134.91;;;0.30;100.00
41686;BME280;27370;42.764;23.432;2022-11-15T03:28:10;96136.47;;;0.32;100.00
41686;BME280;27370;42.764;23.432;2022-11-15T03:30:56;96133.41;;;0.21;100.00
41686;BME280;27370;42.764;23.432;2022-11-15T03:33:40;96128.22;;;0.24;100.00
41686;BME280;27370;42.764;23.432;2022-11-15T03:36:25;96131.25;;;0.35;100.00
41686;BME280;27370;42.764;23.432;2022-11-15T03:39:11;96123.06;;;0.40;100.00
41686;BME280;27370;42.764;23.432;2022-11-15T03:44:51;96116.56;;;0.62;100.00
41686;BME280;27370;42.764;23.432;2022-11-15T03:47:41;96114.28;;;0.40;100.00
41686;BME280;27370;42.764;23.432;2022-11-15T03:50:30;96113.53;;;0.18;100.00
41686;BME280;27370;42.764;23.432;2022-11-15T03:53:15;96108.72;;;0.33;100.00
41686;BME280;27370;42.764;23.432;2022-11-15T03:55:59;96110.06;;;0.72;100.00
41686;BME280;27370;42.764;23.432;2022-11-15T03:58:43;96111.41;;;0.45;100.00
41686;BME280;27370;42.764;23.432;2022-11-15T04:01:27;96108.06;;;0.36;100.00
41686;BME280;27370;42.764;23.432;2022-11-15T04:04:10;96111.63;;;0.40;100.00
41686;BME280;27370;42.764;23.432;2022-11-15T04:06:54;96110.41;;;0.37;100.00
41686;BME280;27370;42.764;23.432;2022-11-15T04:09:38;96101.06;;;0.31;100.00
41686;BME280;27370;42.764;23.432;2022-11-15T04:12:44;96106.06;;;0.45;100.00
41686;BME280;27370;42.764;23.432;2022-11-15T04:15:31;96107.50;;;0.42;100.00
41686;BME280;27370;42.764;23.432;2022-11-15T04:18:14;96100.13;;;0.48;100.00
41686;BME280;27370;42.764;23.432;2022-11-15T04:20:58;96098.03;;;0.53;100.00
41686;BME280;27370;42.764;23.432;2022-11-15T04:24:01;96094.00;;;0.47;100.00
41686;BME280;27370;42.764;23.432;2022-11-15T04:26:58;96098.34;;;0.52;100.00
41686;BME280;27370;42.764;23.432;2022-11-15T04:29:42;96094.25;;;0.67;100.00
41686;BME280;27370;42.764;23.432;2022-11-15T04:32:26;96099.19;;;0.77;100.00
41686;BME280;27370;42.764;23.432;2022-11-15T04:35:10;96081.63;;;0.88;100.00
41686;BME280;27370;42.764;23.432;2022-11-15T04:37:55;96088.44;;;0.98;100.00
41686;BME280;27370;42.764;23.432;2022-11-15T04:40:39;96079.88;;;0.92;100.00
41686;BME280;27370;42.764;23.432;2022-11-15T04:43:23;96086.31;;;1.03;100.00
41686;BME280;27370;42.764;23.432;2022-11-15T04:46:07;96093.09;;;1.13;100.00
41686;BME280;27370;42.764;23.432;2022-11-15T04:48:51;96088.78;;;1.20;100.00
41686;BME280;27370;42.764;23.432;2022-11-15T04:51:36;96070.75;;;1.30;100.00
41686;BME280;27370;42.764;23.432;2022-11-15T04:54:20;96087.44;;;1.27;100.00
41686;BME280;27370;42.764;23.432;2022-11-15T04:57:03;96084.31;;;1.49;100.00
41686;BME280;27370;42.764;23.432;2022-11-15T04:59:48;96088.19;;;1.51;100.00
41686;BME280;27370;42.764;23.432;2022-11-15T05:02:31;96100.53;;;1.56;100.00
41686;BME280;27370;42.764;23.432;2022-11-15T05:05:34;96095.88;;;1.53;100.00
41686;BME280;27370;42.764;23.432;2022-11-15T05:08:18;96096.09;;;1.60;100.00
41686;BME280;27370;42.764;23.432;2022-11-15T05:11:02;96096.34;;;1.43;100.00
41686;BME280;27370;42.764;23.432;2022-11-15T05:13:46;96097.22;;;1.47;100.00
41686;BME280;27370;42.764;23.432;2022-11-15T05:16:30;96097.56;;;1.45;100.00
41686;BME280;27370;42.764;23.432;2022-11-15T05:19:14;96095.13;;;1.40;100.00
41686;BME280;27370;42.764;23.432;2022-11-15T05:21:58;96091.88;;;1.47;100.00
41686;BME280;27370;42.764;23.432;2022-11-15T05:24:42;96099.09;;;1.59;100.00
41686;BME280;27370;42.764;23.432;2022-11-15T05:27:26;96094.09;;;1.45;100.00
41686;BME280;27370;42.764;23.432;2022-11-15T05:30:10;96095.97;;;1.57;100.00
41686;BME280;27370;42.764;23.432;2022-11-15T05:32:55;96100.31;;;1.61;100.00
41686;BME280;27370;42.764;23.432;2022-11-15T05:35:41;96093.88;;;1.62;100.00
41686;BME280;27370;42.764;23.432;2022-11-15T05:38:25;96089.41;;;1.54;100.00
41686;BME280;27370;42.764;23.432;2022-11-15T05:41:10;96093.53;;;1.64;100.00
41686;BME280;27370;42.764;23.432;2022-11-15T05:43:55;96084.41;;;1.52;100.00
41686;BME280;27370;42.764;23.432;2022-11-15T05:46:40;96082.72;;;1.72;100.00
41686;BME280;27370;42.764;23.432;2022-11-15T05:49:30;96084.38;;;1.77;100.00
41686;BME280;27370;42.764;23.432;2022-11-15T05:52:16;96084.47;;;1.80;100.00
41686;BME280;27370;42.764;23.432;2022-11-15T05:55:01;96091.38;;;1.81;100.00
41686;BME280;27370;42.764;23.432;2022-11-15T05:57:45;96095.91;;;1.81;100.00
41686;BME280;27370;42.764;23.432;2022-11-15T06:00:29;96091.09;;;1.99;100.00
41686;BME280;27370;42.764;23.432;2022-11-15T06:03:13;96090.78;;;2.28;100.00
41686;BME280;27370;42.764;23.432;2022-11-15T06:05:58;96101.59;;;2.20;100.00
41686;BME280;27370;42.764;23.432;2022-11-15T06:08:41;96096.88;;;2.01;100.00
41686;BME280;27370;42.764;23.432;2022-11-15T06:11:26;96088.44;;;1.99;100.00
41686;BME280;27370;42.764;23.432;2022-11-15T06:14:09;96097.22;;;1.99;100.00
41686;BME280;27370;42.764;23.432;2022-11-15T06:16:54;96096.16;;;2.16;100.00
41686;BME280;27370;42.764;23.432;2022-11-15T06:19:37;96096.69;;;2.22;100.00
41686;BME280;27370;42.764;23.432;2022-11-15T06:22:21;96099.94;;;2.43;100.00
41686;BME280;27370;42.764;23.432;2022-11-15T06:25:05;96110.50;;;2.52;100.00
41686;BME280;27370;42.764;23.432;2022-11-15T06:27:57;96107.63;;;2.44;100.00
41686;BME280;27370;42.764;23.432;2022-11-15T06:30:42;96103.66;;;2.98;100.00
41686;BME280;27370;42.764;23.432;2022-11-15T06:33:26;96107.63;;;2.88;100.00
41686;BME280;27370;42.764;23.432;2022-11-15T06:36:12;96106.50;;;2.89;100.00
41686;BME280;27370;42.764;23.432;2022-11-15T06:38:58;96100.44;;;2.61;100.00
41686;BME280;27370;42.764;23.432;2022-11-15T06:41:42;96100.00;;;2.59;100.00
41686;BME280;27370;42.764;23.432;2022-11-15T06:44:26;96100.53;;;2.80;100.00
41686;BME280;27370;42.764;23.432;2022-11-15T06:47:10;96092.50;;;2.64;100.00
41686;BME280;27370;42.764;23.432;2022-11-15T06:49:54;96099.59;;;2.88;100.00
41686;BME280;27370;42.764;23.432;2022-11-15T06:52:38;96100.16;;;2.66;100.00
41686;BME280;27370;42.764;23.432;2022-11-15T06:55:22;96098.34;;;2.70;100.00
41686;BME280;27370;42.764;23.432;2022-11-15T06:58:06;96100.97;;;2.82;100.00
41686;BME280;27370;42.764;23.432;2022-11-15T07:00:50;96091.84;;;2.83;100.00
41686;BME280;27370;42.764;23.432;2022-11-15T07:03:35;96093.56;;;3.23;100.00
41686;BME280;27370;42.764;23.432;2022-11-15T07:06:20;96095.03;;;3.04;100.00
41686;BME280;27370;42.764;23.432;2022-11-15T07:09:03;96094.44;;;2.95;100.00
41686;BME280;27370;42.764;23.432;2022-11-15T07:11:48;96090.22;;;2.94;100.00
41686;BME280;27370;42.764;23.432;2022-11-15T07:14:32;96089.00;;;3.07;100.00
41686;BME280;27370;42.764;23.432;2022-11-15T07:17:15;96086.59;;;3.18;100.00
41686;BME280;27370;42.764;23.432;2022-11-15T07:19:59;96084.31;;;3.36;100.00
41686;BME280;27370;42.764;23.432;2022-11-15T07:22:44;96084.69;;;3.19;100.00
41686;BME280;27370;42.764;23.432;2022-11-15T07:25:31;96084.84;;;3.10;100.00
41686;BME280;27370;42.764;23.432;2022-11-15T07:28:16;96076.13;;;3.29;100.00
41686;BME280;27370;42.764;23.432;2022-11-15T07:31:04;96082.47;;;3.56;100.00
41686;BME280;27370;42.764;23.432;2022-11-15T07:33:49;96067.19;;;3.56;100.00
41686;BME280;27370;42.764;23.432;2022-11-15T07:36:33;96077.16;;;3.75;100.00
41686;BME280;27370;42.764;23.432;2022-11-15T07:39:17;96075.50;;;3.35;100.00
41686;BME280;27370;42.764;23.432;2022-11-15T07:42:00;96076.03;;;3.41;100.00
41686;BME280;27370;42.764;23.432;2022-11-15T07:45:04;96073.31;;;3.57;100.00
41686;BME280;27370;42.764;23.432;2022-11-15T07:47:49;96082.38;;;3.68;100.00
41686;BME280;27370;42.764;23.432;2022-11-15T07:50:33;96083.97;;;4.08;100.00
41686;BME280;27370;42.764;23.432;2022-11-15T07:53:17;96082.91;;;4.12;100.00
41686;BME280;27370;42.764;23.432;2022-11-15T07:56:01;96086.00;;;3.95;100.00
41686;BME280;27370;42.764;23.432;2022-11-15T07:58:45;96084.88;;;3.96;100.00
41686;BME280;27370;42.764;23.432;2022-11-15T08:01:29;96081.97;;;3.85;100.00
41686;BME280;27370;42.764;23.432;2022-11-15T08:04:13;96077.97;;;3.60;100.00
41686;BME280;27370;42.764;23.432;2022-11-15T08:06:58;96082.88;;;3.58;100.00
41686;BME280;27370;42.764;23.432;2022-11-15T08:09:42;96077.34;;;3.66;100.00
41686;BME280;27370;42.764;23.432;2022-11-15T08:12:29;96072.72;;;3.48;100.00
41686;BME280;27370;42.764;23.432;2022-11-15T08:15:13;96081.66;;;3.71;100.00
41686;BME280;27370;42.764;23.432;2022-11-15T08:17:59;96080.47;;;4.07;100.00
41686;BME280;27370;42.764;23.432;2022-11-15T08:20:43;96081.28;;;4.08;100.00
41686;BME280;27370;42.764;23.432;2022-11-15T08:23:28;96070.47;;;4.04;100.00
41686;BME280;27370;42.764;23.432;2022-11-15T08:26:12;96074.03;;;4.08;100.00
41686;BME280;27370;42.764;23.432;2022-11-15T08:28:57;96062.09;;;4.25;100.00
41686;BME280;27370;42.764;23.432;2022-11-15T08:31:40;96070.38;;;4.58;100.00
41686;BME280;27370;42.764;23.432;2022-11-15T08:34:25;96064.97;;;4.36;100.00
41686;BME280;27370;42.764;23.432;2022-11-15T08:37:09;96069.91;;;4.53;100.00
41686;BME280;27370;42.764;23.432;2022-11-15T08:39:53;96074.09;;;4.31;100.00
41686;BME280;27370;42.764;23.432;2022-11-15T08:42:37;96067.59;;;4.32;100.00
41686;BME280;27370;42.764;23.432;2022-11-15T08:45:21;96061.53;;;4.35;100.00
41686;BME280;27370;42.764;23.432;2022-11-15T08:48:05;96062.03;;;4.21;100.00
41686;BME280;27370;42.764;23.432;2022-11-15T08:50:54;96055.69;;;4.10;100.00
41686;BME280;27370;42.764;23.432;2022-11-15T08:53:39;96054.13;;;4.09;100.00
41686;BME280;27370;42.764;23.432;2022-11-15T08:56:23;96046.34;;;4.43;100.00
41686;BME280;27370;42.764;23.432;2022-11-15T08:59:07;96044.25;;;4.13;100.00
41686;BME280;27370;42.764;23.432;2022-11-15T09:01:51;96041.41;;;4.06;100.00
41686;BME280;27370;42.764;23.432;2022-11-15T09:04:35;96030.28;;;4.23;100.00
41686;BME280;27370;42.764;23.432;2022-11-15T09:07:19;96030.16;;;4.16;100.00
41686;BME280;27370;42.764;23.432;2022-11-15T09:10:03;96022.53;;;4.18;100.00
41686;BME280;27370;42.764;23.432;2022-11-15T09:12:47;96017.69;;;4.47;100.00
41686;BME280;27370;42.764;23.432;2022-11-15T09:15:32;96021.91;;;4.93;100.00
41686;BME280;27370;42.764;23.432;2022-11-15T09:18:16;96027.88;;;4.38;100.00
41686;BME280;27370;42.764;23.432;2022-11-15T09:21:00;96015.91;;;4.77;100.00
41686;BME280;27370;42.764;23.432;2022-11-15T09:23:46;96012.94;;;4.82;100.00
41686;BME280;27370;42.764;23.432;2022-11-15T09:26:30;96007.53;;;4.79;100.00
41686;BME280;27370;42.764;23.432;2022-11-15T09:29:14;96003.66;;;4.76;100.00
41686;BME280;27370;42.764;23.432;2022-11-15T09:31:58;96001.66;;;4.73;100.00
41686;BME280;27370;42.764;23.432;2022-11-15T09:34:42;96001.91;;;4.87;100.00
41686;BME280;27370;42.764;23.432;2022-11-15T09:37:25;95992.63;;;5.08;100.00
41686;BME280;27370;42.764;23.432;2022-11-15T09:40:12;95988.50;;;4.42;100.00
41686;BME280;27370;42.764;23.432;2022-11-15T09:49:37;95966.19;;;4.83;100.00
41686;BME280;27370;42.764;23.432;2022-11-15T09:52:12;95974.25;;;4.83;100.00
41686;BME280;27370;42.764;23.432;2022-11-15T09:54:39;95966.59;;;4.85;100.00
41686;BME280;27370;42.764;23.432;2022-11-15T09:57:15;95976.13;;;5.06;100.00
41686;BME280;27370;42.764;23.432;2022-11-15T10:03:03;95965.69;;;5.27;100.00
41686;BME280;27370;42.764;23.432;2022-11-15T10:05:46;95963.78;;;5.28;100.00
41686;BME280;27370;42.764;23.432;2022-11-15T10:10:59;95949.78;;;5.75;100.00
41686;BME280;27370;42.764;23.432;2022-11-15T10:13:28;95948.41;;;5.54;100.00
41686;BME280;27370;42.764;23.432;2022-11-15T10:16:04;95940.34;;;5.25;100.00
41686;BME280;27370;42.764;23.432;2022-11-15T10:24:13;95946.34;;;5.74;100.00
41686;BME280;27370;42.764;23.432;2022-11-15T10:26:46;95944.59;;;5.59;100.00
41686;BME280;27370;42.764;23.432;2022-11-15T10:29:18;95936.06;;;5.50;100.00
41686;BME280;27370;42.764;23.432;2022-11-15T10:31:43;95930.78;;;5.27;100.00
41686;BME280;27370;42.764;23.432;2022-11-15T10:36:59;95937.16;;;5.79;100.00
41686;BME280;27370;42.764;23.432;2022-11-15T10:39:27;95916.31;;;5.35;100.00
41686;BME280;27370;42.764;23.432;2022-11-15T10:41:53;95910.44;;;5.56;100.00
41686;BME280;27370;42.764;23.432;2022-11-15T10:44:25;95902.88;;;5.35;100.00
41686;BME280;27370;42.764;23.432;2022-11-15T10:49:23;95894.72;;;5.58;100.00
41686;BME280;27370;42.764;23.432;2022-11-15T10:54:41;95891.47;;;5.75;100.00
41686;BME280;27370;42.764;23.432;2022-11-15T10:57:12;95882.50;;;5.64;100.00
41686;BME280;27370;42.764;23.432;2022-11-15T10:59:44;95879.56;;;5.76;100.00
41686;BME280;27370;42.764;23.432;2022-11-15T11:02:31;95880.19;;;5.96;100.00
41686;BME280;27370;42.764;23.432;2022-11-15T11:04:57;95872.94;;;6.00;100.00
41686;BME280;27370;42.764;23.432;2022-11-15T11:07:29;95865.03;;;5.81;100.00
41686;BME280;27370;42.764;23.432;2022-11-15T11:10:19;95857.81;;;6.29;100.00
41686;BME280;27370;42.764;23.432;2022-11-15T11:12:45;95859.72;;;6.29;100.00
41686;BME280;27370;42.764;23.432;2022-11-15T11:15:13;95854.19;;;6.11;100.00
41686;BME280;27370;42.764;23.432;2022-11-15T11:18:30;95849.72;;;6.26;100.00
41686;BME280;27370;42.764;23.432;2022-11-15T11:20:51;95849.06;;;6.36;100.00
41686;BME280;27370;42.764;23.432;2022-11-15T11:37:09;95820.97;;;6.92;100.00
41686;BME280;27370;42.764;23.432;2022-11-15T11:50:41;95793.34;;;7.02;100.00
41686;BME280;27370;42.764;23.432;2022-11-15T11:53:51;95786.84;;;7.21;100.00
41686;BME280;27370;42.764;23.432;2022-11-15T11:56:23;95778.44;;;7.36;100.00
41686;BME280;27370;42.764;23.432;2022-11-15T11:58:53;95784.66;;;7.48;100.00
41686;BME280;27370;42.764;23.432;2022-11-15T12:01:30;95786.59;;;7.58;100.00
41686;BME280;27370;42.764;23.432;2022-11-15T12:06:57;95771.91;;;7.37;100.00
41686;BME280;27370;42.764;23.432;2022-11-15T12:09:39;95763.47;;;7.53;100.00
41686;BME280;27370;42.764;23.432;2022-11-15T12:12:12;95765.41;;;7.56;100.00
41686;BME280;27370;42.764;23.432;2022-11-15T12:15:19;95755.34;;;7.43;100.00
41686;BME280;27370;42.764;23.432;2022-11-15T12:17:43;95759.16;;;7.24;100.00
41686;BME280;27370;42.764;23.432;2022-11-15T12:20:19;95745.34;;;7.43;100.00
41686;BME280;27370;42.764;23.432;2022-11-15T12:25:28;95744.19;;;7.26;100.00
41686;BME280;27370;42.764;23.432;2022-11-15T12:30:25;95735.78;;;7.71;100.00
41686;BME280;27370;42.764;23.432;2022-11-15T12:32:58;95726.13;;;8.12;100.00
41686;BME280;27370;42.764;23.432;2022-11-15T12:35:34;95721.53;;;7.88;100.00
41686;BME280;27370;42.764;23.432;2022-11-15T12:38:00;95720.75;;;8.05;100.00
41686;BME280;27370;42.764;23.432;2022-11-15T12:40:31;95718.44;;;8.11;100.00
41686;BME280;27370;42.764;23.432;2022-11-15T12:45:40;95710.34;;;8.43;100.00
41686;BME280;27370;42.764;23.432;2022-11-15T12:50:55;95709.03;;;8.90;100.00
41686;BME280;27370;42.764;23.432;2022-11-15T12:58:59;95702.75;;;9.70;100.00
41686;BME280;27370;42.764;23.432;2022-11-15T13:07:03;95696.19;;;9.71;100.00
41686;BME280;27370;42.764;23.432;2022-11-15T13:12:03;95692.47;;;10.02;100.00
41686;BME280;27370;42.764;23.432;2022-11-15T13:14:58;95681.31;;;9.97;100.00
41686;BME280;27370;42.764;23.432;2022-11-15T13:17:36;95679.78;;;9.92;100.00
41686;BME280;27370;42.764;23.432;2022-11-15T13:22:41;95671.44;;;9.20;100.00
41686;BME280;27370;42.764;23.432;2022-11-15T13:27:49;95659.72;;;8.72;100.00
41686;BME280;27370;42.764;23.432;2022-11-15T13:30:20;95663.31;;;8.40;100.00
41686;BME280;27370;42.764;23.432;2022-11-15T13:32:46;95659.13;;;8.04;100.00
41686;BME280;27370;42.764;23.432;2022-11-15T13:35:25;95649.47;;;8.10;100.00
41686;BME280;27370;42.764;23.432;2022-11-15T13:37:53;95655.28;;;7.90;100.00
41686;BME280;27370;42.764;23.432;2022-11-15T13:40:24;95646.03;;;8.06;100.00
41686;BME280;27370;42.764;23.432;2022-11-15T13:42:50;95643.34;;;8.02;100.00
41686;BME280;27370;42.764;23.432;2022-11-15T13:45:18;95649.53;;;7.95;100.00
41686;BME280;27370;42.764;23.432;2022-11-15T13:47:43;95646.41;;;8.15;100.00
41686;BME280;27370;42.764;23.432;2022-11-15T13:50:13;95647.97;;;7.98;100.00
41686;BME280;27370;42.764;23.432;2022-11-15T13:52:40;95642.59;;;7.94;100.00
41686;BME280;27370;42.764;23.432;2022-11-15T13:55:15;95651.44;;;7.95;100.00
41686;BME280;27370;42.764;23.432;2022-11-15T13:57:54;95653.31;;;8.12;100.00
41686;BME280;27370;42.764;23.432;2022-11-15T14:00:38;95646.75;;;8.24;100.00
41686;BME280;27370;42.764;23.432;2022-11-15T14:03:13;95648.31;;;8.18;100.00
41686;BME280;27370;42.764;23.432;2022-11-15T14:05:41;95644.47;;;8.12;100.00
41686;BME280;27370;42.764;23.432;2022-11-15T14:10:38;95642.50;;;8.30;100.00
41686;BME280;27370;42.764;23.432;2022-11-15T14:13:25;95649.06;;;8.25;100.00
41686;BME280;27370;42.764;23.432;2022-11-15T14:15:51;95640.63;;;8.09;100.00
41686;BME280;27370;42.764;23.432;2022-11-15T14:18:40;95642.88;;;8.32;100.00
41686;BME280;27370;42.764;23.432;2022-11-15T14:21:06;95642.50;;;8.26;100.00
41686;BME280;27370;42.764;23.432;2022-11-15T14:23:34;95635.59;;;8.11;100.00
41686;BME280;27370;42.764;23.432;2022-11-15T14:26:00;95631.81;;;7.87;100.00
41686;BME280;27370;42.764;23.432;2022-11-15T14:30:53;95629.53;;;7.50;100.00
41686;BME280;27370;42.764;23.432;2022-11-15T14:33:23;95627.56;;;7.15;100.00
41686;BME280;27370;42.764;23.432;2022-11-15T14:35:52;95628.31;;;7.01;100.00
41686;BME280;27370;42.764;23.432;2022-11-15T14:38:18;95627.22;;;7.31;100.00
41686;BME280;27370;42.764;23.432;2022-11-15T14:40:44;95632.94;;;6.97;100.00
41686;BME280;27370;42.764;23.432;2022-11-15T14:43:11;95635.16;;;6.60;100.00
41686;BME280;27370;42.764;23.432;2022-11-15T14:45:37;95638.16;;;6.44;100.00
41686;BME280;27370;42.764;23.432;2022-11-15T14:48:03;95635.84;;;6.39;100.00
41686;BME280;27370;42.764;23.432;2022-11-15T14:50:28;95632.75;;;6.37;100.00
41686;BME280;27370;42.764;23.432;2022-11-15T14:52:54;95629.19;;;6.15;100.00
41686;BME280;27370;42.764;23.432;2022-11-15T14:55:23;95632.59;;;6.08;100.00
41686;BME280;27370;42.764;23.432;2022-11-15T14:57:49;95633.31;;;5.98;100.00
41686;BME280;27370;42.764;23.432;2022-11-15T15:00:15;95637.91;;;5.91;100.00
41686;BME280;27370;42.764;23.432;2022-11-15T15:02:43;95627.44;;;5.85;100.00
41686;BME280;27370;42.764;23.432;2022-11-15T15:08:11;95630.09;;;5.78;100.00
41686;BME280;27370;42.764;23.432;2022-11-15T15:10:42;95624.69;;;5.71;100.00
41686;BME280;27370;42.764;23.432;2022-11-15T15:13:16;95620.00;;;5.65;100.00
41686;BME280;27370;42.764;23.432;2022-11-15T15:15:42;95620.75;;;5.62;100.00
41686;BME280;27370;42.764;23.432;2022-11-15T15:18:07;95616.16;;;5.62;100.00
41686;BME280;27370;42.764;23.432;2022-11-15T15:20:35;95612.91;;;5.35;100.00
41686;BME280;27370;42.764;23.432;2022-11-15T15:23:03;95617.44;;;5.24;100.00
41686;BME280;27370;42.764;23.432;2022-11-15T15:25:30;95618.69;;;5.41;100.00
41686;BME280;27370;42.764;23.432;2022-11-15T15:27:55;95618.09;;;5.65;100.00
41686;BME280;27370;42.764;23.432;2022-11-15T15:30:26;95615.41;;;5.62;100.00
41686;BME280;27370;42.764;23.432;2022-11-15T15:32:51;95608.03;;;5.48;100.00
41686;BME280;27370;42.764;23.432;2022-11-15T15:35:18;95617.13;;;5.36;100.00
41686;BME280;27370;42.764;23.432;2022-11-15T15:37:44;95616.34;;;5.32;100.00
41686;BME280;27370;42.764;23.432;2022-11-15T15:40:19;95612.88;;;5.32;100.00
41686;BME280;27370;42.764;23.432;2022-11-15T15:42:48;95609.56;;;5.01;100.00
41686;BME280;27370;42.764;23.432;2022-11-15T15:45:15;95614.81;;;5.35;100.00
41686;BME280;27370;42.764;23.432;2022-11-15T15:47:41;95612.28;;;5.56;100.00
41686;BME280;27370;42.764;23.432;2022-11-15T15:50:23;95621.72;;;5.36;100.00
41686;BME280;27370;42.764;23.432;2022-11-15T15:52:53;95618.84;;;5.11;100.00
41686;BME280;27370;42.764;23.432;2022-11-15T15:55:19;95614.56;;;5.03;100.00
41686;BME280;27370;42.764;23.432;2022-11-15T15:57:45;95609.06;;;4.92;100.00
41686;BME280;27370;42.764;23.432;2022-11-15T16:00:11;95622.25;;;5.08;100.00